Time;durP1;ratioP1;P1;durP2;ratioP2;P2;SDS_P1;SDS_P2;PMS_P1;PMS_P2;Temp;Humidity;BMP_temperature;BMP_pressure;BME280_temperature;BME280_humidity;BME280_pressure;Samples;Min_cycle;Max_cycle;Signal;HPM_P1;HPM_P2
2022/07/08 00:00:58;;;;;;;0.10;0.10;;;;;;;;;;10553891;28;20231;-68
2022/07/08 00:06:01;;;;;;;0.10;0.10;;;;;;;;;;10520160;28;20123;-68
2022/07/08 00:11:05;;;;;;;0.10;0.10;;;;;;;;;;10557119;28;20040;-68
2022/07/08 00:16:08;;;;;;;0.20;0.20;;;;;;;;;;10530600;28;20055;-68
2022/07/08 00:21:11;;;;;;;0.10;0.10;;;;;;;;;;10554536;28;20240;-68
2022/07/08 00:26:15;;;;;;;0.10;0.10;;;;;;;;;;10548438;28;20301;-68
2022/07/08 00:31:17;;;;;;;0.10;0.10;;;;;;;;;;10533799;28;20102;-68
2022/07/08 00:36:20;;;;;;;0.20;0.20;;;;;;;;;;10531053;28;20051;-68
2022/07/08 00:41:24;;;;;;;0.10;0.10;;;;;;;;;;10562419;28;20047;-69
2022/07/08 00:46:26;;;;;;;0.10;0.10;;;;;;;;;;10572519;28;20044;-68
2022/07/08 00:51:30;;;;;;;0.10;0.10;;;;;;;;;;10572667;28;20052;-68
2022/07/08 00:56:34;;;;;;;0.10;0.10;;;;;;;;;;10541014;28;20048;-68
2022/07/08 01:01:37;;;;;;;0.10;0.10;;;;;;;;;;10529610;28;20040;-68
2022/07/08 01:06:39;;;;;;;0.10;0.10;;;;;;;;;;10524484;28;20090;-68
2022/07/08 01:11:46;;;;;;;0.10;0.10;;;;;;;;;;10537484;28;20044;-68
2022/07/08 01:16:49;;;;;;;0.10;0.10;;;;;;;;;;10537112;28;20044;-67
2022/07/08 01:21:54;;;;;;;0.10;0.10;;;;;;;;;;10538765;28;20244;-68
2022/07/08 01:26:57;;;;;;;0.10;0.10;;;;;;;;;;10538018;28;20044;-68
2022/07/08 01:32:01;;;;;;;0.10;0.10;;;;;;;;;;10522962;28;20120;-69
2022/07/08 01:37:06;;;;;;;0.10;0.10;;;;;;;;;;10536531;28;20052;-68
2022/07/08 01:42:08;;;;;;;0.10;0.10;;;;;;;;;;10565307;28;20315;-68
2022/07/08 01:47:11;;;;;;;0.10;0.10;;;;;;;;;;10578478;28;20054;-69
2022/07/08 01:52:15;;;;;;;0.10;0.10;;;;;;;;;;10549636;28;20041;-68
2022/07/08 01:57:18;;;;;;;0.10;0.10;;;;;;;;;;10535046;28;20051;-69
2022/07/08 02:02:22;;;;;;;0.10;0.10;;;;;;;;;;10521806;28;20052;-68
2022/07/08 02:07:26;;;;;;;0.10;0.10;;;;;;;;;;10523634;28;20107;-68
2022/07/08 02:12:29;;;;;;;0.10;0.10;;;;;;;;;;10530007;28;20050;-68
2022/07/08 02:17:33;;;;;;;0.10;0.10;;;;;;;;;;10567045;28;20059;-68
2022/07/08 02:22:37;;;;;;;0.10;0.10;;;;;;;;;;10543023;28;20073;-68
2022/07/08 02:27:40;;;;;;;0.10;0.10;;;;;;;;;;10561646;28;20048;-68
2022/07/08 02:32:42;;;;;;;0.10;0.10;;;;;;;;;;10562682;28;20340;-68
2022/07/08 02:37:46;;;;;;;0.10;0.10;;;;;;;;;;10537666;28;20040;-68
2022/07/08 02:42:50;;;;;;;0.10;0.10;;;;;;;;;;10535574;28;20048;-68
2022/07/08 02:47:52;;;;;;;0.10;0.10;;;;;;;;;;10534181;28;20079;-68
2022/07/08 02:52:56;;;;;;;0.10;0.10;;;;;;;;;;10552708;28;20347;-68
2022/07/08 02:57:58;;;;;;;0.10;0.10;;;;;;;;;;10574397;28;20047;-68
2022/07/08 03:03:01;;;;;;;0.10;0.10;;;;;;;;;;10568814;28;20036;-68
2022/07/08 03:08:05;;;;;;;0.10;0.10;;;;;;;;;;10532518;28;20110;-68
2022/07/08 03:13:08;;;;;;;1.00;1.00;;;;;;;;;;10534377;28;20373;-69
2022/07/08 03:18:11;;;;;;;0.10;0.10;;;;;;;;;;10534225;28;20048;-69
2022/07/08 03:23:15;;;;;;;8.90;8.50;;;;;;;;;;10519437;28;20055;-68
2022/07/08 03:28:18;;;;;;;6.80;6.60;;;;;;;;;;10531110;28;20055;-69
2022/07/08 03:33:21;;;;;;;0.10;0.10;;;;;;;;;;10526726;28;20060;-69
2022/07/08 03:38:24;;;;;;;0.00;0.00;;;;;;;;;;10517837;28;20057;-69
2022/07/08 03:43:27;;;;;;;0.00;0.00;;;;;;;;;;10534553;28;20335;-68
2022/07/08 03:48:29;;;;;;;0.00;0.00;;;;;;;;;;10534563;28;20047;-67
2022/07/08 03:53:33;;;;;;;0.00;0.00;;;;;;;;;;10550297;28;20040;-67
2022/07/08 03:58:36;;;;;;;0.00;0.00;;;;;;;;;;10549988;28;20055;-67
2022/07/08 04:03:38;;;;;;;0.00;0.00;;;;;;;;;;10538716;28;20049;-68
2022/07/08 04:08:42;;;;;;;0.00;0.00;;;;;;;;;;10536712;28;20041;-68
2022/07/08 04:13:45;;;;;;;0.00;0.00;;;;;;;;;;10536932;28;20041;-69
2022/07/08 04:18:48;;;;;;;0.00;0.00;;;;;;;;;;10529795;28;20044;-70
2022/07/08 04:23:57;;;;;;;0.00;0.00;;;;;;;;;;10531243;28;20048;-71
2022/07/08 04:29:00;;;;;;;0.00;0.00;;;;;;;;;;10538962;28;20044;-71
2022/07/08 04:34:03;;;;;;;0.00;0.00;;;;;;;;;;10558383;28;20055;-71
2022/07/08 04:39:07;;;;;;;0.00;0.00;;;;;;;;;;10558980;28;20040;-69
2022/07/08 04:44:09;;;;;;;0.00;0.00;;;;;;;;;;10542151;28;20051;-72
2022/07/08 04:49:12;;;;;;;0.00;0.00;;;;;;;;;;10557099;28;20056;-69
2022/07/08 04:54:16;;;;;;;0.00;0.00;;;;;;;;;;10556799;28;20055;-69
2022/07/08 04:59:18;;;;;;;0.00;0.00;;;;;;;;;;10559065;28;20046;-69
2022/07/08 05:04:21;;;;;;;0.00;0.00;;;;;;;;;;10543281;28;20336;-70
2022/07/08 05:09:24;;;;;;;0.00;0.00;;;;;;;;;;10555594;28;20040;-69
2022/07/08 05:14:27;;;;;;;0.00;0.00;;;;;;;;;;10550976;28;20046;-70
2022/07/08 05:19:30;;;;;;;0.00;0.00;;;;;;;;;;10559292;28;20046;-70
2022/07/08 05:24:34;;;;;;;0.00;0.00;;;;;;;;;;10549721;28;20219;-69
2022/07/08 05:29:36;;;;;;;0.00;0.00;;;;;;;;;;10557709;28;20048;-69
2022/07/08 05:34:41;;;;;;;0.00;0.00;;;;;;;;;;10545751;28;20056;-71
2022/07/08 05:39:45;;;;;;;0.00;0.00;;;;;;;;;;10554638;28;20059;-68
2022/07/08 05:44:48;;;;;;;0.00;0.00;;;;;;;;;;10553562;28;20056;-68
2022/07/08 05:49:50;;;;;;;0.00;0.00;;;;;;;;;;10553712;28;20043;-68
2022/07/08 05:54:54;;;;;;;0.00;0.00;;;;;;;;;;10551914;28;20050;-68
2022/07/08 05:59:56;;;;;;;0.00;0.00;;;;;;;;;;10556373;28;20086;-68
2022/07/08 06:04:59;;;;;;;0.00;0.00;;;;;;;;;;10540092;28;20048;-68
2022/07/08 06:10:03;;;;;;;0.00;0.00;;;;;;;;;;10552057;28;20240;-69
2022/07/08 06:15:07;;;;;;;0.00;0.00;;;;;;;;;;10553751;28;20032;-67
2022/07/08 06:20:12;;;;;;;0.00;0.00;;;;;;;;;;10555655;28;20051;-68
2022/07/08 06:25:15;;;;;;;0.00;0.00;;;;;;;;;;10550067;28;20043;-69
2022/07/08 06:30:18;;;;;;;0.00;0.00;;;;;;;;;;10552819;28;20047;-72
2022/07/08 06:35:21;;;;;;;0.00;0.00;;;;;;;;;;10542320;28;20363;-69
2022/07/08 06:40:25;;;;;;;11.57;10.98;;;;;;;;;;10554349;28;20090;-69
2022/07/08 06:45:31;;;;;;;7.40;7.10;;;;;;;;;;10535807;28;20336;-70
2022/07/08 06:50:34;;;;;;;8.20;7.90;;;;;;;;;;10554345;28;20048;-69
2022/07/08 06:55:38;;;;;;;5.20;5.00;;;;;;;;;;10539631;28;20037;-69
2022/07/08 07:00:40;;;;;;;6.88;6.65;;;;;;;;;;10534880;28;20048;-69
2022/07/08 07:05:43;;;;;;;7.63;7.33;;;;;;;;;;10532800;28;20107;-68
2022/07/08 07:10:47;;;;;;;7.90;7.60;;;;;;;;;;10545571;28;20060;-69
2022/07/08 07:15:49;;;;;;;8.10;7.80;;;;;;;;;;10538812;28;20299;-71
2022/07/08 07:20:52;;;;;;;5.40;5.20;;;;;;;;;;10542472;28;20267;-70
2022/07/08 07:25:56;;;;;;;9.23;8.82;;;;;;;;;;10539462;28;20074;-70
2022/07/08 07:30:59;;;;;;;4.60;4.50;;;;;;;;;;10530423;28;20047;-70
2022/07/08 07:36:02;;;;;;;6.10;5.90;;;;;;;;;;10527826;28;20259;-70
2022/07/08 07:41:05;;;;;;;;;;;;;;;;;;10532187;28;20262;-68
2022/07/08 07:46:08;;;;;;;14.77;13.98;;;;;;;;;;10543418;28;19916;-69
2022/07/08 07:51:10;;;;;;;;;;;;;;;;;;10573096;28;20059;-70
2022/07/08 07:56:14;;;;;;;0.10;0.10;;;;;;;;;;10601782;28;19986;-69
2022/07/08 08:01:16;;;;;;;0.63;0.63;;;;;;;;;;10544494;28;20047;-69
2022/07/08 08:06:19;;;;;;;0.00;0.00;;;;;;;;;;10557534;28;20048;-69
2022/07/08 08:11:23;;;;;;;1.10;1.10;;;;;;;;;;10562744;28;20043;-70
2022/07/08 08:16:26;;;;;;;1.77;1.77;;;;;;;;;;10541670;28;20040;-70
2022/07/08 08:21:29;;;;;;;0.80;0.80;;;;;;;;;;10532579;28;20052;-71
2022/07/08 08:26:33;;;;;;;3.20;3.10;;;;;;;;;;10574466;28;20037;-69
2022/07/08 08:31:36;;;;;;;4.35;4.25;;;;;;;;;;10538098;28;20244;-69
2022/07/08 08:36:39;;;;;;;8.30;8.00;;;;;;;;;;10539362;28;20046;-68
2022/07/08 08:41:44;;;;;;;3.38;3.28;;;;;;;;;;10546037;28;20052;-70
2022/07/08 08:46:48;;;;;;;3.25;3.15;;;;;;;;;;10554355;28;20051;-70
2022/07/08 08:51:52;;;;;;;4.30;4.20;;;;;;;;;;10550801;28;20044;-68
2022/07/08 08:56:56;;;;;;;0.00;0.00;;;;;;;;;;10531817;28;20052;-69
2022/07/08 09:01:59;;;;;;;0.00;0.00;;;;;;;;;;10553744;28;20067;-67
2022/07/08 09:07:02;;;;;;;0.00;0.00;;;;;;;;;;10566996;28;20047;-70
2022/07/08 09:12:19;;;;;;;0.00;0.00;;;;;;;;;;10565426;28;20055;-69
2022/07/08 09:17:22;;;;;;;4.32;4.10;;;;;;;;;;10578219;28;20085;-67
2022/07/08 09:22:25;;;;;;;0.75;0.75;;;;;;;;;;10558786;28;20128;-69
2022/07/08 09:27:29;;;;;;;0.00;0.00;;;;;;;;;;10556553;28;20040;-67
2022/07/08 09:32:32;;;;;;;5.20;4.93;;;;;;;;;;10559780;28;20370;-68
2022/07/08 09:37:35;;;;;;;0.00;0.00;;;;;;;;;;10559143;28;20060;-69
2022/07/08 09:42:40;;;;;;;0.00;0.00;;;;;;;;;;10522483;28;20048;-69
2022/07/08 09:47:43;;;;;;;0.00;0.00;;;;;;;;;;10550926;28;20100;-71
2022/07/08 09:52:46;;;;;;;0.00;0.00;;;;;;;;;;10554490;28;20040;-68
2022/07/08 09:57:50;;;;;;;0.00;0.00;;;;;;;;;;10559212;28;20052;-72
2022/07/08 10:02:53;;;;;;;0.00;0.00;;;;;;;;;;10546909;28;20072;-72
2022/07/08 10:07:56;;;;;;;0.47;0.47;;;;;;;;;;10548672;28;20222;-73
2022/07/08 10:13:01;;;;;;;0.00;0.00;;;;;;;;;;10556033;28;20047;-71
2022/07/08 10:23:26;;;;;;;0.47;0.47;;;;;;;;;;10823272;23;20054;-73
2022/07/08 10:28:36;;;;;;;0.60;0.60;;;;;;;;;;10358883;28;20062;-74
2022/07/08 10:33:45;;;;;;;0.00;0.00;;;;;;;;;;10359320;28;20050;-73
2022/07/08 10:38:49;;;;;;;0.00;0.00;;;;;;;;;;10346846;28;20043;-72
2022/07/08 10:43:54;;;;;;;0.00;0.00;;;;;;;;;;10353848;28;20058;-73
2022/07/08 10:48:58;;;;;;;0.00;0.00;;;;;;;;;;10365328;28;20050;-72
2022/07/08 10:54:02;;;;;;;0.00;0.00;;;;;;;;;;10401635;28;20061;-72
2022/07/08 10:59:20;;;;;;;0.00;0.00;;;;;;;;;;10406805;28;20104;-74
2022/07/08 11:04:28;;;;;;;0.00;0.00;;;;;;;;;;10410139;28;20042;-74
2022/07/08 11:09:31;;;;;;;0.00;0.00;;;;;;;;;;10356332;28;20291;-73
2022/07/08 11:14:36;;;;;;;0.00;0.00;;;;;;;;;;10368165;28;20218;-72
2022/07/08 11:19:41;;;;;;;0.00;0.00;;;;;;;;;;10365668;28;20049;-72
2022/07/08 11:24:45;;;;;;;0.00;0.00;;;;;;;;;;10332275;28;20043;-72
2022/07/08 11:29:49;;;;;;;0.10;0.10;;;;;;;;;;10296818;28;20047;-73
2022/07/08 11:34:53;;;;;;;4.50;4.40;;;;;;;;;;10319603;28;20102;-72
2022/07/08 11:39:56;;;;;;;2.80;2.70;;;;;;;;;;10321423;28;20112;-73
2022/07/08 11:45:04;;;;;;;6.47;6.22;;;;;;;;;;10328660;28;20329;-73
2022/07/08 11:50:10;;;;;;;0.00;0.00;;;;;;;;;;10306792;28;20051;-73
2022/07/08 11:55:12;;;;;;;0.00;0.00;;;;;;;;;;10341031;28;20042;-72
2022/07/08 12:00:17;;;;;;;0.00;0.00;;;;;;;;;;10340535;28;20054;-72
2022/07/08 12:05:19;;;;;;;0.00;0.00;;;;;;;;;;10318092;28;20054;-70
2022/07/08 12:10:23;;;;;;;0.00;0.00;;;;;;;;;;10320545;28;20054;-71
2022/07/08 12:15:35;;;;;;;0.30;0.30;;;;;;;;;;10353044;28;20066;-70
2022/07/08 12:20:41;;;;;;;0.00;0.00;;;;;;;;;;10323039;28;20102;-67
2022/07/08 12:25:48;;;;;;;0.00;0.00;;;;;;;;;;10327387;28;20226;-69
2022/07/08 12:30:52;;;;;;;0.00;0.00;;;;;;;;;;10301284;28;20047;-69
2022/07/08 12:35:55;;;;;;;0.00;0.00;;;;;;;;;;10328059;28;20048;-69
2022/07/08 12:40:57;;;;;;;0.00;0.00;;;;;;;;;;10314953;28;20061;-68
2022/07/08 12:46:01;;;;;;;0.00;0.00;;;;;;;;;;10325711;28;20065;-70
2022/07/08 12:51:04;;;;;;;0.00;0.00;;;;;;;;;;10326869;28;20071;-69
2022/07/08 12:56:07;;;;;;;0.00;0.00;;;;;;;;;;10327995;28;20039;-70
2022/07/08 13:01:11;;;;;;;0.00;0.00;;;;;;;;;;10313538;28;20213;-70
2022/07/08 13:06:18;;;;;;;0.00;0.00;;;;;;;;;;10321353;28;20059;-70
2022/07/08 13:11:21;;;;;;;0.00;0.00;;;;;;;;;;10323703;28;20050;-69
2022/07/08 13:16:25;;;;;;;4.63;4.53;;;;;;;;;;10332430;28;20052;-69
2022/07/08 13:21:28;;;;;;;7.85;7.55;;;;;;;;;;10326625;28;20062;-68
2022/07/08 13:26:33;;;;;;;0.00;0.00;;;;;;;;;;10319376;28;20043;-69
2022/07/08 13:31:37;;;;;;;0.00;0.00;;;;;;;;;;10335166;28;20049;-69
2022/07/08 14:38:43;;;;;;;0.00;0.00;;;;;;;;;;10493769;27;84055;-68
2022/07/08 14:45:05;;;;;;;0.00;0.00;;;;;;;;;;10509497;27;20623;-69
2022/07/08 14:50:08;;;;;;;0.00;0.00;;;;;;;;;;10450183;28;75686;-72
2022/07/08 14:55:10;;;;;;;0.00;0.00;;;;;;;;;;10417371;28;20382;-69
2022/07/08 15:00:15;;;;;;;0.00;0.00;;;;;;;;;;10407267;28;20060;-71
2022/07/08 15:05:17;;;;;;;0.00;0.00;;;;;;;;;;10376212;28;20067;-69
2022/07/08 15:10:22;;;;;;;0.00;0.00;;;;;;;;;;10453129;28;20057;-69
2022/07/08 15:15:25;;;;;;;0.00;0.00;;;;;;;;;;10442560;28;20048;-68
2022/07/08 15:20:28;;;;;;;0.00;0.00;;;;;;;;;;10440026;28;20240;-69
2022/07/08 15:25:30;;;;;;;0.00;0.00;;;;;;;;;;10454896;28;20056;-66
2022/07/08 15:30:34;;;;;;;0.00;0.00;;;;;;;;;;10454549;28;20045;-68
2022/07/08 15:35:37;;;;;;;0.00;0.00;;;;;;;;;;10440523;28;20041;-68
2022/07/08 15:40:40;;;;;;;0.00;0.00;;;;;;;;;;10440183;28;20252;-69
2022/07/08 15:45:45;;;;;;;0.00;0.00;;;;;;;;;;10426758;28;20061;-69
2022/07/08 15:50:47;;;;;;;0.00;0.00;;;;;;;;;;10440897;28;20140;-68
2022/07/08 15:55:50;;;;;;;0.00;0.00;;;;;;;;;;10404529;28;20096;-72
2022/07/08 16:00:53;;;;;;;0.00;0.00;;;;;;;;;;10434423;28;20330;-71
2022/07/08 16:05:57;;;;;;;0.00;0.00;;;;;;;;;;10417651;28;20080;-70
2022/07/08 16:11:00;;;;;;;0.00;0.00;;;;;;;;;;10408543;28;20054;-68
2022/07/08 16:16:04;;;;;;;0.00;0.00;;;;;;;;;;10427060;28;20363;-70
2022/07/08 16:21:07;;;;;;;0.00;0.00;;;;;;;;;;10407882;28;20068;-68
2022/07/08 16:26:10;;;;;;;0.00;0.00;;;;;;;;;;10399236;28;20067;-70
2022/07/08 16:31:14;;;;;;;0.00;0.00;;;;;;;;;;10418997;28;20045;-68
2022/07/08 16:36:17;;;;;;;0.00;0.00;;;;;;;;;;10413187;28;20295;-69
2022/07/08 16:41:20;;;;;;;0.00;0.00;;;;;;;;;;10425216;28;20061;-70
2022/07/08 16:46:24;;;;;;;0.00;0.00;;;;;;;;;;10407244;28;20049;-67
2022/07/08 16:51:27;;;;;;;0.00;0.00;;;;;;;;;;10415463;28;20092;-68
2022/07/08 16:56:30;;;;;;;0.00;0.00;;;;;;;;;;10437817;28;20042;-68
2022/07/08 17:01:34;;;;;;;0.00;0.00;;;;;;;;;;10410787;28;20042;-70
2022/07/08 17:06:37;;;;;;;0.00;0.00;;;;;;;;;;10417984;28;20241;-67
2022/07/08 17:11:40;;;;;;;0.00;0.00;;;;;;;;;;10409769;28;20058;-70
2022/07/08 17:16:45;;;;;;;0.00;0.00;;;;;;;;;;10421410;28;20050;-70
2022/07/08 17:21:49;;;;;;;0.00;0.00;;;;;;;;;;10396264;28;20430;-68
2022/07/08 17:26:52;;;;;;;0.00;0.00;;;;;;;;;;10419677;28;20050;-68
2022/07/08 17:31:56;;;;;;;0.00;0.00;;;;;;;;;;10397591;28;20049;-70
2022/07/08 17:36:58;;;;;;;0.00;0.00;;;;;;;;;;10413292;28;20046;-68
2022/07/08 17:42:01;;;;;;;0.00;0.00;;;;;;;;;;10403448;28;20349;-68
2022/07/08 17:47:06;;;;;;;0.03;0.03;;;;;;;;;;10411070;28;20041;-67
2022/07/08 17:52:10;;;;;;;0.00;0.00;;;;;;;;;;10413617;28;20046;-69
2022/07/08 17:57:12;;;;;;;0.00;0.00;;;;;;;;;;10402187;28;20049;-68
2022/07/08 18:02:17;;;;;;;0.00;0.00;;;;;;;;;;10413381;28;20049;-68
2022/07/08 18:07:20;;;;;;;0.00;0.00;;;;;;;;;;10395154;28;20066;-67
2022/07/08 18:12:22;;;;;;;0.00;0.00;;;;;;;;;;10400492;28;20064;-68
2022/07/08 18:17:27;;;;;;;0.00;0.00;;;;;;;;;;10420801;28;20041;-67
2022/07/08 18:22:29;;;;;;;0.00;0.00;;;;;;;;;;10397855;28;20096;-67
2022/07/08 18:27:32;;;;;;;0.00;0.00;;;;;;;;;;10407812;28;20054;-70
2022/07/08 18:32:36;;;;;;;0.00;0.00;;;;;;;;;;10409548;28;20053;-71
2022/07/08 18:37:38;;;;;;;0.00;0.00;;;;;;;;;;10427757;28;20034;-70
2022/07/08 18:42:41;;;;;;;0.00;0.00;;;;;;;;;;10397004;28;20061;-69
2022/07/08 18:47:49;;;;;;;0.00;0.00;;;;;;;;;;10404877;28;20058;-67
2022/07/08 18:52:52;;;;;;;0.00;0.00;;;;;;;;;;10394407;28;20058;-68
2022/07/08 18:57:54;;;;;;;0.08;0.08;;;;;;;;;;10401590;28;20065;-69
2022/07/08 19:02:58;;;;;;;0.10;0.10;;;;;;;;;;10392827;28;20061;-68
2022/07/08 19:08:01;;;;;;;0.00;0.00;;;;;;;;;;10414240;28;20371;-69
2022/07/08 19:13:03;;;;;;;0.10;0.10;;;;;;;;;;10427217;28;20309;-68
2022/07/08 19:18:07;;;;;;;0.10;0.10;;;;;;;;;;10448558;28;20050;-68
2022/07/08 19:23:10;;;;;;;0.10;0.10;;;;;;;;;;10399627;28;20253;-69
2022/07/08 19:28:12;;;;;;;0.10;0.10;;;;;;;;;;10439153;28;20034;-68
2022/07/08 19:33:16;;;;;;;0.10;0.10;;;;;;;;;;10441852;28;20049;-68
2022/07/08 19:38:18;;;;;;;0.10;0.10;;;;;;;;;;10438763;28;20053;-69
2022/07/08 20:26:02;;;;;;;0.10;0.10;;;;;;;;;;15015814;19;120658;-66
2022/07/08 20:31:08;;;;;;;0.10;0.10;;;;;;;;;;15183831;19;20122;-68
2022/07/08 20:36:12;;;;;;;0.10;0.10;;;;;;;;;;15415694;19;20018;-68
2022/07/08 20:46:41;;;;;;;0.10;0.10;;;;;;;;;;15411357;19;19907;-68
2022/07/08 20:51:46;;;;;;;0.10;0.10;;;;;;;;;;15405286;19;20006;-68
2022/07/08 20:56:53;;;;;;;0.10;0.10;;;;;;;;;;15239883;19;20080;-67
2022/07/08 21:03:32;;;;;;;0.10;0.10;;;;;;;;;;15310500;19;20365;-67
2022/07/08 21:08:34;;;;;;;0.10;0.10;;;;;;;;;;15411535;19;20022;-68
2022/07/08 21:13:35;;;;;;;0.10;0.10;;;;;;;;;;15417513;19;20134;-67
2022/07/08 21:18:36;;;;;;;0.10;0.10;;;;;;;;;;15416455;19;20018;-68
2022/07/08 21:23:37;;;;;;;0.10;0.10;;;;;;;;;;15404458;19;20018;-69
2022/07/08 21:28:38;;;;;;;0.10;0.10;;;;;;;;;;15410111;19;20021;-67
2022/07/08 21:33:40;;;;;;;0.10;0.10;;;;;;;;;;15416554;19;20014;-68
2022/07/08 21:38:41;;;;;;;0.10;0.10;;;;;;;;;;15409025;19;20128;-68
2022/07/08 21:43:42;;;;;;;0.10;0.10;;;;;;;;;;15416284;19;20034;-68
2022/07/08 21:48:45;;;;;;;0.10;0.10;;;;;;;;;;15414369;19;20009;-66
2022/07/08 21:53:47;;;;;;;0.10;0.10;;;;;;;;;;15407095;19;20010;-67
2022/07/08 21:58:51;;;;;;;0.10;0.10;;;;;;;;;;15406130;19;20118;-67
2022/07/08 22:03:53;;;;;;;0.10;0.10;;;;;;;;;;15413682;19;20250;-67
2022/07/08 22:08:54;;;;;;;0.10;0.10;;;;;;;;;;15406180;19;20007;-68
2022/07/08 22:13:55;;;;;;;0.10;0.10;;;;;;;;;;15358160;19;20017;-68
2022/07/08 22:18:56;;;;;;;0.10;0.10;;;;;;;;;;15345905;19;20010;-68
2022/07/08 22:23:58;;;;;;;0.10;0.10;;;;;;;;;;15341200;19;20003;-68
2022/07/08 22:28:59;;;;;;;0.10;0.10;;;;;;;;;;15346068;19;20175;-68
2022/07/08 22:34:00;;;;;;;0.10;0.10;;;;;;;;;;15344927;19;20006;-67
2022/07/08 22:39:02;;;;;;;0.10;0.10;;;;;;;;;;15344253;19;20237;-67
2022/07/08 22:44:04;;;;;;;0.10;0.10;;;;;;;;;;15347457;19;20177;-66
2022/07/08 22:49:05;;;;;;;0.13;0.13;;;;;;;;;;15345181;19;20133;-65
2022/07/08 22:54:06;;;;;;;0.10;0.10;;;;;;;;;;15344081;19;20087;-66
2022/07/08 22:59:08;;;;;;;0.10;0.10;;;;;;;;;;15341769;19;20011;-66
2022/07/08 23:04:09;;;;;;;0.10;0.10;;;;;;;;;;15344268;19;20121;-68
2022/07/08 23:09:11;;;;;;;0.10;0.10;;;;;;;;;;15347708;19;20015;-66
2022/07/08 23:14:12;;;;;;;0.10;0.10;;;;;;;;;;15342385;19;20014;-67
2022/07/08 23:19:14;;;;;;;0.10;0.10;;;;;;;;;;15339691;19;20010;-67
2022/07/08 23:24:16;;;;;;;0.10;0.10;;;;;;;;;;15332925;19;20014;-67
2022/07/08 23:29:17;;;;;;;0.10;0.10;;;;;;;;;;15339644;19;20103;-67
2022/07/08 23:34:18;;;;;;;0.10;0.10;;;;;;;;;;15338316;19;20002;-67
2022/07/08 23:39:19;;;;;;;0.10;0.10;;;;;;;;;;15338198;19;20015;-67
2022/07/08 23:44:21;;;;;;;0.10;0.10;;;;;;;;;;15345431;19;20025;-67
2022/07/08 23:49:22;;;;;;;0.10;0.10;;;;;;;;;;15338334;19;20006;-67
2022/07/08 23:54:23;;;;;;;0.10;0.10;;;;;;;;;;15338211;19;20003;-67
2022/07/08 23:59:25;;;;;;;0.10;0.10;;;;;;;;;;15336076;19;20021;-66
